sensor_id;sensor_type;location;lat;lon;timestamp;pressure;altitude;pressure_sealevel;temperature;humidity
63654;BME280;49809;47.418;19.080;2023-05-20T02:28:55;100927.88;;;13.35;100.00
63654;BME280;49809;47.418;19.080;2023-05-20T02:32:01;100931.28;;;13.31;100.00
63654;BME280;49809;47.418;19.080;2023-05-20T02:35:04;100940.56;;;13.28;100.00
63654;BME280;49809;47.418;19.080;2023-05-20T02:38:13;100935.25;;;13.28;100.00
63654;BME280;49809;47.418;19.080;2023-05-20T02:41:18;100938.66;;;13.24;100.00
63654;BME280;49809;47.418;19.080;2023-05-20T02:44:25;100933.06;;;13.20;100.00
63654;BME280;49809;47.418;19.080;2023-05-20T02:47:29;100923.09;;;13.11;100.00
63654;BME280;49809;47.418;19.080;2023-05-20T02:50:32;100927.41;;;13.12;100.00
63654;BME280;49809;47.418;19.080;2023-05-20T02:53:34;100928.09;;;13.07;100.00
63654;BME280;49809;47.418;19.080;2023-05-20T02:56:37;100927.06;;;13.08;100.00
63654;BME280;49809;47.418;19.080;2023-05-20T02:59:45;100926.19;;;13.02;100.00
63654;BME280;49809;47.418;19.080;2023-05-20T03:02:48;100930.12;;;12.95;100.00
63654;BME280;49809;47.418;19.080;2023-05-20T03:05:54;100932.72;;;12.90;100.00
63654;BME280;49809;47.418;19.080;2023-05-20T03:08:58;100932.16;;;12.83;100.00
63654;BME280;49809;47.418;19.080;2023-05-20T03:12:00;100932.88;;;12.78;100.00
63654;BME280;49809;47.418;19.080;2023-05-20T03:15:11;100931.53;;;12.76;100.00
63654;BME280;49809;47.418;19.080;2023-05-20T03:18:14;100935.75;;;12.72;100.00
63654;BME280;49809;47.418;19.080;2023-05-20T03:21:18;100930.91;;;12.69;100.00
63654;BME280;49809;47.418;19.080;2023-05-20T03:24:28;100943.16;;;12.70;100.00
63654;BME280;49809;47.418;19.080;2023-05-20T03:27:34;100947.34;;;12.66;100.00
63654;BME280;49809;47.418;19.080;2023-05-20T03:30:40;100943.66;;;12.67;100.00
63654;BME280;49809;47.418;19.080;2023-05-20T03:33:54;100941.16;;;12.82;100.00
63654;BME280;49809;47.418;19.080;2023-05-20T03:36:56;100940.12;;;12.88;100.00
63654;BME280;49809;47.418;19.080;2023-05-20T03:40:07;100940.34;;;13.08;100.00
63654;BME280;49809;47.418;19.080;2023-05-20T03:43:14;100945.22;;;13.11;100.00
63654;BME280;49809;47.418;19.080;2023-05-20T03:46:17;100949.50;;;13.17;100.00
63654;BME280;49809;47.418;19.080;2023-05-20T03:49:22;100943.69;;;13.20;100.00
63654;BME280;49809;47.418;19.080;2023-05-20T03:52:29;100950.09;;;13.24;100.00
63654;BME280;49809;47.418;19.080;2023-05-20T03:55:35;100951.47;;;13.32;100.00
63654;BME280;49809;47.418;19.080;2023-05-20T03:58:41;100966.44;;;13.38;100.00
63654;BME280;49809;47.418;19.080;2023-05-20T04:01:44;100969.13;;;13.43;100.00
63654;BME280;49809;47.418;19.080;2023-05-20T04:04:50;100970.50;;;13.45;100.00
63654;BME280;49809;47.418;19.080;2023-05-20T04:07:59;100980.09;;;13.52;100.00
63654;BME280;49809;47.418;19.080;2023-05-20T04:11:02;100976.72;;;13.61;100.00
63654;BME280;49809;47.418;19.080;2023-05-20T04:14:08;100982.87;;;13.67;100.00
63654;BME280;49809;47.418;19.080;2023-05-20T04:17:14;100989.91;;;13.78;100.00
63654;BME280;49809;47.418;19.080;2023-05-20T04:20:19;100995.81;;;13.90;100.00
63654;BME280;49809;47.418;19.080;2023-05-20T04:23:27;100993.75;;;13.97;100.00
63654;BME280;49809;47.418;19.080;2023-05-20T04:26:29;100986.63;;;14.08;100.00
63654;BME280;49809;47.418;19.080;2023-05-20T04:29:35;100977.62;;;14.19;100.00
63654;BME280;49809;47.418;19.080;2023-05-20T04:32:38;100981.44;;;14.28;100.00
63654;BME280;49809;47.418;19.080;2023-05-20T04:35:44;100981.72;;;14.31;100.00
63654;BME280;49809;47.418;19.080;2023-05-20T04:38:49;100984.69;;;14.40;100.00
63654;BME280;49809;47.418;19.080;2023-05-20T04:42:10;100989.03;;;14.51;100.00
63654;BME280;49809;47.418;19.080;2023-05-20T04:45:13;100991.97;;;14.55;100.00
63654;BME280;49809;47.418;19.080;2023-05-20T04:48:19;100998.38;;;14.59;100.00
63654;BME280;49809;47.418;19.080;2023-05-20T04:51:25;100989.09;;;14.71;100.00
63654;BME280;49809;47.418;19.080;2023-05-20T04:54:44;100989.37;;;14.80;100.00
63654;BME280;49809;47.418;19.080;2023-05-20T04:57:48;100991.00;;;14.91;100.00
63654;BME280;49809;47.418;19.080;2023-05-20T05:00:52;100996.34;;;15.01;100.00
63654;BME280;49809;47.418;19.080;2023-05-20T05:03:55;100990.53;;;15.14;100.00
63654;BME280;49809;47.418;19.080;2023-05-20T05:06:58;100993.75;;;15.27;100.00
63654;BME280;49809;47.418;19.080;2023-05-20T05:10:06;100984.44;;;15.39;100.00
63654;BME280;49809;47.418;19.080;2023-05-20T05:13:15;100993.00;;;15.56;99.40
63654;BME280;49809;47.418;19.080;2023-05-20T05:16:24;100993.81;;;15.62;98.20
63654;BME280;49809;47.418;19.080;2023-05-20T05:19:33;100986.31;;;15.79;96.12
63654;BME280;49809;47.418;19.080;2023-05-20T05:22:56;100998.03;;;15.93;93.97
63654;BME280;49809;47.418;19.080;2023-05-20T05:25:59;100991.03;;;16.23;89.64
63654;BME280;49809;47.418;19.080;2023-05-20T05:29:02;100992.81;;;16.47;85.62
63654;BME280;49809;47.418;19.080;2023-05-20T05:32:06;100981.81;;;16.69;86.06
63654;BME280;49809;47.418;19.080;2023-05-20T05:35:09;100983.31;;;16.85;81.45
63654;BME280;49809;47.418;19.080;2023-05-20T05:38:15;100986.50;;;16.92;81.04
63654;BME280;49809;47.418;19.080;2023-05-20T05:41:20;100988.78;;;17.09;79.89
63654;BME280;49809;47.418;19.080;2023-05-20T05:44:28;100981.50;;;17.20;78.89
63654;BME280;49809;47.418;19.080;2023-05-20T05:47:35;100992.63;;;17.37;78.20
63654;BME280;49809;47.418;19.080;2023-05-20T05:50:41;100998.97;;;17.46;77.98
63654;BME280;49809;47.418;19.080;2023-05-20T05:53:51;100995.44;;;17.51;77.19
63654;BME280;49809;47.418;19.080;2023-05-20T05:57:05;100989.16;;;17.70;76.47
63654;BME280;49809;47.418;19.080;2023-05-20T06:00:09;100996.66;;;17.68;76.35
63654;BME280;49809;47.418;19.080;2023-05-20T06:03:34;100998.09;;;17.90;75.13
63654;BME280;49809;47.418;19.080;2023-05-20T06:06:37;101000.13;;;17.98;74.70
63654;BME280;49809;47.418;19.080;2023-05-20T06:09:41;100996.13;;;18.00;75.54
63654;BME280;49809;47.418;19.080;2023-05-20T06:12:43;100994.09;;;18.11;74.71
63654;BME280;49809;47.418;19.080;2023-05-20T06:15:48;100993.37;;;18.29;75.26
63654;BME280;49809;47.418;19.080;2023-05-20T06:18:56;100998.16;;;18.32;73.30
63654;BME280;49809;47.418;19.080;2023-05-20T06:21:59;101000.72;;;18.42;73.61
63654;BME280;49809;47.418;19.080;2023-05-20T06:25:10;100992.06;;;18.50;73.09
63654;BME280;49809;47.418;19.080;2023-05-20T06:32:32;100983.72;;;18.76;72.48
63654;BME280;49809;47.418;19.080;2023-05-20T06:35:40;100983.44;;;18.96;71.66
63654;BME280;49809;47.418;19.080;2023-05-20T06:38:44;100986.63;;;18.98;70.94
63654;BME280;49809;47.418;19.080;2023-05-20T06:41:50;100992.50;;;19.19;70.33
63654;BME280;49809;47.418;19.080;2023-05-20T06:44:58;100996.50;;;19.21;69.20
63654;BME280;49809;47.418;19.080;2023-05-20T06:48:08;100994.16;;;19.33;69.75
63654;BME280;49809;47.418;19.080;2023-05-20T06:51:11;100987.41;;;19.55;68.88
63654;BME280;49809;47.418;19.080;2023-05-20T06:54:19;100983.88;;;19.73;67.97
63654;BME280;49809;47.418;19.080;2023-05-20T06:57:23;100979.72;;;19.94;68.55
63654;BME280;49809;47.418;19.080;2023-05-20T07:00:28;100981.22;;;20.00;66.67
63654;BME280;49809;47.418;19.080;2023-05-20T07:03:31;100970.25;;;20.24;67.36
63654;BME280;49809;47.418;19.080;2023-05-20T07:06:39;100964.12;;;20.23;67.66
63654;BME280;49809;47.418;19.080;2023-05-20T07:09:44;100976.47;;;20.52;65.98
63654;BME280;49809;47.418;19.080;2023-05-20T07:12:53;100975.75;;;20.60;65.20
63654;BME280;49809;47.418;19.080;2023-05-20T07:15:55;100969.03;;;20.85;63.88
63654;BME280;49809;47.418;19.080;2023-05-20T07:19:01;100959.66;;;20.82;65.13
63654;BME280;49809;47.418;19.080;2023-05-20T07:22:06;100957.00;;;21.04;62.98
63654;BME280;49809;47.418;19.080;2023-05-20T07:25:09;100958.22;;;20.98;63.51
63654;BME280;49809;47.418;19.080;2023-05-20T07:28:15;100955.72;;;21.15;64.52
63654;BME280;49809;47.418;19.080;2023-05-20T07:31:22;100949.09;;;21.44;62.33
63654;BME280;49809;47.418;19.080;2023-05-20T07:34:25;100955.91;;;21.72;63.18
63654;BME280;49809;47.418;19.080;2023-05-20T07:37:29;100961.38;;;22.29;61.39
63654;BME280;49809;47.418;19.080;2023-05-20T07:40:32;100958.25;;;22.61;58.64
63654;BME280;49809;47.418;19.080;2023-05-20T07:43:35;100955.25;;;23.40;57.83
63654;BME280;49809;47.418;19.080;2023-05-20T07:46:39;100955.91;;;23.54;55.43
63654;BME280;49809;47.418;19.080;2023-05-20T07:49:43;100948.75;;;23.41;55.71
63654;BME280;49809;47.418;19.080;2023-05-20T07:52:54;100952.69;;;23.69;54.74
63654;BME280;49809;47.418;19.080;2023-05-20T07:56:02;100954.75;;;24.10;54.46
63654;BME280;49809;47.418;19.080;2023-05-20T07:59:12;100956.13;;;24.54;53.55
63654;BME280;49809;47.418;19.080;2023-05-20T08:02:16;100958.41;;;24.44;52.69
63654;BME280;49809;47.418;19.080;2023-05-20T08:05:22;100953.62;;;24.91;52.52
63654;BME280;49809;47.418;19.080;2023-05-20T08:08:31;100951.91;;;25.07;51.22
63654;BME280;49809;47.418;19.080;2023-05-20T08:11:35;100945.28;;;24.54;51.58
63654;BME280;49809;47.418;19.080;2023-05-20T08:14:39;100947.81;;;25.55;51.01
63654;BME280;49809;47.418;19.080;2023-05-20T08:17:46;100955.50;;;25.65;50.38
63654;BME280;49809;47.418;19.080;2023-05-20T08:20:50;100943.22;;;25.79;48.73
63654;BME280;49809;47.418;19.080;2023-05-20T08:23:54;100942.41;;;26.15;48.45
63654;BME280;49809;47.418;19.080;2023-05-20T08:27:03;100936.31;;;25.94;50.15
63654;BME280;49809;47.418;19.080;2023-05-20T08:30:13;100931.69;;;26.43;47.24
63654;BME280;49809;47.418;19.080;2023-05-20T08:33:18;100937.09;;;26.95;46.92
63654;BME280;49809;47.418;19.080;2023-05-20T08:36:26;100930.84;;;27.22;45.57
63654;BME280;49809;47.418;19.080;2023-05-20T08:39:28;100924.44;;;27.74;45.75
63654;BME280;49809;47.418;19.080;2023-05-20T08:42:33;100927.25;;;27.18;46.04
63654;BME280;49809;47.418;19.080;2023-05-20T08:45:37;100929.78;;;27.55;46.05
63654;BME280;49809;47.418;19.080;2023-05-20T08:48:46;100922.91;;;27.45;44.12
63654;BME280;49809;47.418;19.080;2023-05-20T08:51:52;100920.97;;;27.46;45.92
63654;BME280;49809;47.418;19.080;2023-05-20T08:54:55;100911.81;;;27.66;44.57
63654;BME280;49809;47.418;19.080;2023-05-20T08:58:02;100916.19;;;27.86;43.49
63654;BME280;49809;47.418;19.080;2023-05-20T09:01:05;100919.84;;;28.25;43.08
63654;BME280;49809;47.418;19.080;2023-05-20T09:04:10;100914.47;;;28.83;43.45
63654;BME280;49809;47.418;19.080;2023-05-20T09:07:25;100907.22;;;28.71;40.89
63654;BME280;49809;47.418;19.080;2023-05-20T09:10:28;100907.91;;;28.14;42.62
63654;BME280;49809;47.418;19.080;2023-05-20T09:13:32;100910.63;;;27.98;42.31
63654;BME280;49809;47.418;19.080;2023-05-20T09:16:35;100913.34;;;28.30;43.37
63654;BME280;49809;47.418;19.080;2023-05-20T09:19:38;100909.25;;;28.93;42.46
63654;BME280;49809;47.418;19.080;2023-05-20T09:22:49;100911.22;;;28.58;44.44
63654;BME280;49809;47.418;19.080;2023-05-20T09:25:53;100907.47;;;29.24;40.99
63654;BME280;49809;47.418;19.080;2023-05-20T09:28:56;100901.63;;;29.25;40.52
63654;BME280;49809;47.418;19.080;2023-05-20T09:32:01;100897.00;;;29.71;40.11
63654;BME280;49809;47.418;19.080;2023-05-20T09:35:05;100893.78;;;29.89;38.78
63654;BME280;49809;47.418;19.080;2023-05-20T09:38:12;100886.59;;;29.31;39.03
63654;BME280;49809;47.418;19.080;2023-05-20T09:41:15;100870.94;;;29.28;39.62
63654;BME280;49809;47.418;19.080;2023-05-20T09:44:21;100869.62;;;29.42;40.13
63654;BME280;49809;47.418;19.080;2023-05-20T09:47:29;100863.66;;;29.59;37.66
63654;BME280;49809;47.418;19.080;2023-05-20T09:50:33;100862.25;;;30.21;36.83
63654;BME280;49809;47.418;19.080;2023-05-20T09:53:40;100852.75;;;30.71;35.40
63654;BME280;49809;47.418;19.080;2023-05-20T09:57:06;100860.22;;;30.44;35.90
63654;BME280;49809;47.418;19.080;2023-05-20T10:00:09;100856.09;;;30.54;34.57
63654;BME280;49809;47.418;19.080;2023-05-20T10:03:19;100858.75;;;30.50;35.75
63654;BME280;49809;47.418;19.080;2023-05-20T10:10:00;100849.03;;;29.70;37.15
63654;BME280;49809;47.418;19.080;2023-05-20T10:17:05;100845.47;;;30.19;36.23
63654;BME280;49809;47.418;19.080;2023-05-20T10:20:11;100839.03;;;30.04;35.77
63654;BME280;49809;47.418;19.080;2023-05-20T10:23:22;100834.59;;;30.52;34.71
63654;BME280;49809;47.418;19.080;2023-05-20T10:26:36;100838.25;;;30.04;35.93
63654;BME280;49809;47.418;19.080;2023-05-20T10:29:48;100830.34;;;29.95;37.06
63654;BME280;49809;47.418;19.080;2023-05-20T10:32:55;100827.63;;;30.58;34.22
63654;BME280;49809;47.418;19.080;2023-05-20T10:36:01;100828.19;;;30.41;33.46
63654;BME280;49809;47.418;19.080;2023-05-20T10:39:14;100820.91;;;31.81;31.57
63654;BME280;49809;47.418;19.080;2023-05-20T10:42:32;100813.75;;;31.59;32.05
63654;BME280;49809;47.418;19.080;2023-05-20T10:46:03;100810.97;;;31.55;32.85
63654;BME280;49809;47.418;19.080;2023-05-20T10:49:43;100807.28;;;31.33;31.68
63654;BME280;49809;47.418;19.080;2023-05-20T10:53:13;100805.47;;;32.17;30.83
63654;BME280;49809;47.418;19.080;2023-05-20T10:56:50;100792.72;;;31.70;31.87
63654;BME280;49809;47.418;19.080;2023-05-20T11:00:36;100791.81;;;31.55;30.92
63654;BME280;49809;47.418;19.080;2023-05-20T11:04:33;100791.28;;;32.01;30.34
63654;BME280;49809;47.418;19.080;2023-05-20T11:08:49;100793.56;;;31.30;31.21
63654;BME280;49809;47.418;19.080;2023-05-20T11:11:57;100782.03;;;31.03;31.66
63654;BME280;49809;47.418;19.080;2023-05-20T11:15:04;100778.41;;;30.55;31.14
63654;BME280;49809;47.418;19.080;2023-05-20T11:19:13;100784.91;;;30.80;30.67
63654;BME280;49809;47.418;19.080;2023-05-20T11:22:40;100776.00;;;31.27;32.58
63654;BME280;49809;47.418;19.080;2023-05-20T11:25:51;100784.19;;;30.83;30.10
63654;BME280;49809;47.418;19.080;2023-05-20T11:29:21;100781.19;;;31.46;30.04
63654;BME280;49809;47.418;19.080;2023-05-20T11:33:00;100777.00;;;31.60;30.60
63654;BME280;49809;47.418;19.080;2023-05-20T11:36:09;100767.81;;;31.96;30.19
63654;BME280;49809;47.418;19.080;2023-05-20T11:39:32;100773.69;;;31.98;29.34
63654;BME280;49809;47.418;19.080;2023-05-20T11:42:47;100770.09;;;31.87;31.07
63654;BME280;49809;47.418;19.080;2023-05-20T11:46:11;100781.41;;;32.72;28.96
63654;BME280;49809;47.418;19.080;2023-05-20T11:50:00;100766.47;;;32.59;28.73
63654;BME280;49809;47.418;19.080;2023-05-20T11:53:08;100759.50;;;33.22;28.93
63654;BME280;49809;47.418;19.080;2023-05-20T11:56:15;100769.19;;;32.59;29.09
63654;BME280;49809;47.418;19.080;2023-05-20T11:59:44;100761.31;;;32.32;29.92
63654;BME280;49809;47.418;19.080;2023-05-20T12:02:47;100766.13;;;32.71;29.93
63654;BME280;49809;47.418;19.080;2023-05-20T12:06:20;100761.84;;;32.81;29.19
63654;BME280;49809;47.418;19.080;2023-05-20T12:21:04;100754.75;;;32.65;29.14
63654;BME280;49809;47.418;19.080;2023-05-20T12:24:08;100767.88;;;32.10;30.87
63654;BME280;49809;47.418;19.080;2023-05-20T12:27:17;100759.59;;;31.96;31.31
63654;BME280;49809;47.418;19.080;2023-05-20T12:30:28;100743.97;;;31.31;31.44
63654;BME280;49809;47.418;19.080;2023-05-20T12:33:55;100747.28;;;30.63;33.16
63654;BME280;49809;47.418;19.080;2023-05-20T12:37:07;100738.16;;;30.15;33.76
63654;BME280;49809;47.418;19.080;2023-05-20T12:44:42;100742.09;;;29.09;36.01
63654;BME280;49809;47.418;19.080;2023-05-20T12:47:47;100730.31;;;28.59;36.40
63654;BME280;49809;47.418;19.080;2023-05-20T12:51:13;100728.16;;;28.49;37.20
63654;BME280;49809;47.418;19.080;2023-05-20T12:54:18;100728.81;;;28.04;38.18
63654;BME280;49809;47.418;19.080;2023-05-20T12:57:53;100723.38;;;27.85;39.78
63654;BME280;49809;47.418;19.080;2023-05-20T13:00:58;100722.56;;;27.84;39.88
63654;BME280;49809;47.418;19.080;2023-05-20T13:04:23;100716.53;;;27.56;37.26
63654;BME280;49809;47.418;19.080;2023-05-20T13:07:26;100716.47;;;27.52;38.72
63654;BME280;49809;47.418;19.080;2023-05-20T13:10:40;100713.12;;;27.59;38.63
63654;BME280;49809;47.418;19.080;2023-05-20T13:14:03;100714.06;;;27.66;38.20
63654;BME280;49809;47.418;19.080;2023-05-20T13:17:26;100708.69;;;27.70;39.14
63654;BME280;49809;47.418;19.080;2023-05-20T13:20:31;100710.12;;;27.64;38.86
63654;BME280;49809;47.418;19.080;2023-05-20T13:23:34;100696.38;;;27.57;36.54
63654;BME280;49809;47.418;19.080;2023-05-20T13:26:44;100697.78;;;27.51;38.54
63654;BME280;49809;47.418;19.080;2023-05-20T13:29:48;100690.63;;;27.11;39.96
63654;BME280;49809;47.418;19.080;2023-05-20T13:32:55;100675.53;;;27.30;39.20
63654;BME280;49809;47.418;19.080;2023-05-20T13:36:00;100689.81;;;27.27;39.49
63654;BME280;49809;47.418;19.080;2023-05-20T13:39:25;100677.66;;;27.20;39.26
63654;BME280;49809;47.418;19.080;2023-05-20T13:42:31;100680.59;;;27.31;40.67
63654;BME280;49809;47.418;19.080;2023-05-20T13:46:07;100679.47;;;27.32;39.65
63654;BME280;49809;47.418;19.080;2023-05-20T13:49:12;100689.41;;;27.09;40.44
63654;BME280;49809;47.418;19.080;2023-05-20T13:52:17;100676.63;;;27.09;40.60
63654;BME280;49809;47.418;19.080;2023-05-20T13:55:20;100670.00;;;27.26;39.31
63654;BME280;49809;47.418;19.080;2023-05-20T13:58:26;100668.63;;;27.16;37.31
63654;BME280;49809;47.418;19.080;2023-05-20T14:01:30;100668.97;;;26.83;37.45
63654;BME280;49809;47.418;19.080;2023-05-20T14:04:35;100668.03;;;26.76;38.09
63654;BME280;49809;47.418;19.080;2023-05-20T14:08:05;100665.25;;;26.88;38.74
63654;BME280;49809;47.418;19.080;2023-05-20T14:11:41;100667.69;;;26.93;38.63
63654;BME280;49809;47.418;19.080;2023-05-20T14:15:11;100662.59;;;27.07;36.71
63654;BME280;49809;47.418;19.080;2023-05-20T14:18:34;100655.34;;;26.96;37.56
63654;BME280;49809;47.418;19.080;2023-05-20T14:22:40;100659.72;;;27.00;37.18
63654;BME280;49809;47.418;19.080;2023-05-20T14:25:45;100654.53;;;26.79;37.20
63654;BME280;49809;47.418;19.080;2023-05-20T14:28:52;100643.31;;;26.81;36.14
63654;BME280;49809;47.418;19.080;2023-05-20T14:32:00;100649.03;;;26.92;37.90
63654;BME280;49809;47.418;19.080;2023-05-20T14:35:05;100647.97;;;26.80;37.64
63654;BME280;49809;47.418;19.080;2023-05-20T14:38:33;100643.41;;;26.85;38.11
63654;BME280;49809;47.418;19.080;2023-05-20T14:41:38;100646.56;;;26.71;38.92
63654;BME280;49809;47.418;19.080;2023-05-20T14:44:43;100635.44;;;26.76;35.86
63654;BME280;49809;47.418;19.080;2023-05-20T14:47:52;100645.94;;;26.77;35.07
63654;BME280;49809;47.418;19.080;2023-05-20T14:50:57;100642.72;;;26.72;35.81
63654;BME280;49809;47.418;19.080;2023-05-20T14:54:01;100639.28;;;26.75;36.44
63654;BME280;49809;47.418;19.080;2023-05-20T14:57:07;100638.06;;;26.57;35.89
63654;BME280;49809;47.418;19.080;2023-05-20T15:00:14;100638.59;;;26.47;34.26
63654;BME280;49809;47.418;19.080;2023-05-20T15:03:25;100645.50;;;26.60;35.81
63654;BME280;49809;47.418;19.080;2023-05-20T15:06:29;100638.25;;;26.64;35.94
63654;BME280;49809;47.418;19.080;2023-05-20T15:09:39;100637.56;;;26.67;36.71
63654;BME280;49809;47.418;19.080;2023-05-20T15:12:46;100639.63;;;26.58;37.02
63654;BME280;49809;47.418;19.080;2023-05-20T15:15:58;100643.66;;;26.64;37.91
63654;BME280;49809;47.418;19.080;2023-05-20T15:19:02;100629.56;;;26.58;39.22
63654;BME280;49809;47.418;19.080;2023-05-20T15:22:06;100630.28;;;26.71;39.04
63654;BME280;49809;47.418;19.080;2023-05-20T15:25:11;100616.16;;;26.81;38.72
63654;BME280;49809;47.418;19.080;2023-05-20T15:28:16;100621.25;;;26.98;38.73
63654;BME280;49809;47.418;19.080;2023-05-20T15:31:22;100615.12;;;27.01;38.27
63654;BME280;49809;47.418;19.080;2023-05-20T15:34:26;100605.22;;;26.93;40.37
63654;BME280;49809;47.418;19.080;2023-05-20T15:37:52;100609.09;;;26.76;40.56
63654;BME280;49809;47.418;19.080;2023-05-20T15:40:58;100607.25;;;26.96;39.54
63654;BME280;49809;47.418;19.080;2023-05-20T15:48:45;100596.72;;;26.95;40.33
63654;BME280;49809;47.418;19.080;2023-05-20T15:52:10;100594.00;;;26.95;40.04
63654;BME280;49809;47.418;19.080;2023-05-20T16:03:50;100589.41;;;27.14;40.62
63654;BME280;49809;47.418;19.080;2023-05-20T16:07:13;100584.38;;;26.81;41.38
63654;BME280;49809;47.418;19.080;2023-05-20T16:10:17;100596.13;;;26.70;42.39
63654;BME280;49809;47.418;19.080;2023-05-20T16:13:22;100596.31;;;26.61;42.27
63654;BME280;49809;47.418;19.080;2023-05-20T16:16:45;100600.50;;;26.59;42.80
63654;BME280;49809;47.418;19.080;2023-05-20T16:19:52;100584.50;;;26.10;42.58
63654;BME280;49809;47.418;19.080;2023-05-20T16:22:59;100594.31;;;25.99;43.42
63654;BME280;49809;47.418;19.080;2023-05-20T16:26:02;100591.59;;;25.99;43.35
63654;BME280;49809;47.418;19.080;2023-05-20T16:29:06;100590.03;;;25.70;43.56
63654;BME280;49809;47.418;19.080;2023-05-20T16:32:13;100577.81;;;25.36;44.76
63654;BME280;49809;47.418;19.080;2023-05-20T16:35:16;100589.09;;;25.38;44.67
63654;BME280;49809;47.418;19.080;2023-05-20T16:38:20;100581.09;;;25.30;44.46
63654;BME280;49809;47.418;19.080;2023-05-20T16:41:23;100590.72;;;25.15;44.03
63654;BME280;49809;47.418;19.080;2023-05-20T16:44:26;100586.66;;;25.09;44.12
63654;BME280;49809;47.418;19.080;2023-05-20T16:47:33;100596.19;;;24.91;45.14
63654;BME280;49809;47.418;19.080;2023-05-20T16:50:43;100597.06;;;24.95;44.58
63654;BME280;49809;47.418;19.080;2023-05-20T16:53:49;100596.19;;;24.91;44.16
63654;BME280;49809;47.418;19.080;2023-05-20T16:56:55;100599.63;;;24.79;44.48
63654;BME280;49809;47.418;19.080;2023-05-20T17:00:00;100595.91;;;24.59;45.01
63654;BME280;49809;47.418;19.080;2023-05-20T17:03:07;100591.06;;;24.53;45.67
63654;BME280;49809;47.418;19.080;2023-05-20T17:06:11;100603.78;;;24.40;45.73
63654;BME280;49809;47.418;19.080;2023-05-20T17:09:17;100597.03;;;24.34;44.38
63654;BME280;49809;47.418;19.080;2023-05-20T17:12:20;100606.47;;;24.28;44.45
63654;BME280;49809;47.418;19.080;2023-05-20T17:15:46;100610.47;;;24.10;45.16
63654;BME280;49809;47.418;19.080;2023-05-20T17:18:49;100604.69;;;23.99;45.08
63654;BME280;49809;47.418;19.080;2023-05-20T17:21:53;100615.38;;;23.96;46.23
63654;BME280;49809;47.418;19.080;2023-05-20T17:25:07;100606.91;;;23.85;46.16
63654;BME280;49809;47.418;19.080;2023-05-20T17:28:11;100615.53;;;23.78;46.85
63654;BME280;49809;47.418;19.080;2023-05-20T17:31:17;100613.69;;;23.70;46.66
63654;BME280;49809;47.418;19.080;2023-05-20T17:34:20;100621.16;;;23.53;47.67
63654;BME280;49809;47.418;19.080;2023-05-20T17:37:23;100610.88;;;23.46;48.21
63654;BME280;49809;47.418;19.080;2023-05-20T17:40:27;100612.78;;;23.46;47.38
63654;BME280;49809;47.418;19.080;2023-05-20T17:43:44;100612.09;;;23.28;48.43
63654;BME280;49809;47.418;19.080;2023-05-20T17:47:20;100608.00;;;23.22;48.33
63654;BME280;49809;47.418;19.080;2023-05-20T17:50:29;100608.84;;;23.14;48.83
63654;BME280;49809;47.418;19.080;2023-05-20T17:53:37;100612.56;;;23.01;48.68
63654;BME280;49809;47.418;19.080;2023-05-20T17:56:49;100601.59;;;22.76;49.63
63654;BME280;49809;47.418;19.080;2023-05-20T18:00:07;100607.31;;;22.66;49.51
63654;BME280;49809;47.418;19.080;2023-05-20T18:03:27;100608.06;;;22.46;50.87
63654;BME280;49809;47.418;19.080;2023-05-20T18:06:32;100601.28;;;22.31;50.24
63654;BME280;49809;47.418;19.080;2023-05-20T18:09:44;100599.41;;;22.15;51.43
63654;BME280;49809;47.418;19.080;2023-05-20T18:12:48;100605.12;;;22.04;51.01
63654;BME280;49809;47.418;19.080;2023-05-20T18:15:55;100601.00;;;21.98;50.74
63654;BME280;49809;47.418;19.080;2023-05-20T18:18:59;100603.69;;;21.90;51.81
63654;BME280;49809;47.418;19.080;2023-05-20T18:22:04;100608.16;;;21.77;52.10
63654;BME280;49809;47.418;19.080;2023-05-20T18:25:15;100610.06;;;21.68;51.79
63654;BME280;49809;47.418;19.080;2023-05-20T18:28:22;100604.69;;;21.68;51.63
63654;BME280;49809;47.418;19.080;2023-05-20T18:31:25;100607.34;;;21.59;53.25
63654;BME280;49809;47.418;19.080;2023-05-20T18:34:32;100609.44;;;21.54;52.69
63654;BME280;49809;47.418;19.080;2023-05-20T18:38:14;100611.31;;;21.53;52.38
63654;BME280;49809;47.418;19.080;2023-05-20T18:41:24;100608.16;;;21.43;53.82
63654;BME280;49809;47.418;19.080;2023-05-20T18:45:04;100613.19;;;21.27;54.19
63654;BME280;49809;47.418;19.080;2023-05-20T18:48:17;100611.62;;;21.43;52.76
63654;BME280;49809;47.418;19.080;2023-05-20T18:51:43;100609.25;;;21.33;53.90
63654;BME280;49809;47.418;19.080;2023-05-20T18:55:53;100615.72;;;21.23;54.41
63654;BME280;49809;47.418;19.080;2023-05-20T18:59:41;100620.75;;;21.16;54.70
63654;BME280;49809;47.418;19.080;2023-05-20T22:26:08;100623.66;;;16.64;83.59
63654;BME280;49809;47.418;19.080;2023-05-20T22:29:43;100629.31;;;16.58;83.30
63654;BME280;49809;47.418;19.080;2023-05-20T22:33:22;100629.34;;;16.52;83.87
63654;BME280;49809;47.418;19.080;2023-05-20T22:37:01;100636.56;;;16.52;83.79
63654;BME280;49809;47.418;19.080;2023-05-20T22:52:05;100641.63;;;16.59;83.50
63654;BME280;49809;47.418;19.080;2023-05-20T22:59:19;100641.22;;;16.70;82.05
63654;BME280;49809;47.418;19.080;2023-05-20T23:02:57;100653.87;;;16.65;82.98
63654;BME280;49809;47.418;19.080;2023-05-20T23:06:32;100647.47;;;16.61;82.92
63654;BME280;49809;47.418;19.080;2023-05-20T23:10:15;100639.41;;;16.66;83.24